sensor_id;sensor_type;location;lat;lon;timestamp;P1;durP1;ratioP1;P2;durP2;ratioP2
1402;SDS011;696;48.546;9.896;2023-07-13T00:00:27;12.18;;;2.47;;
1402;SDS011;696;48.546;9.896;2023-07-13T00:02:53;2.28;;;2.05;;
1402;SDS011;696;48.546;9.896;2023-07-13T00:05:22;5.30;;;2.67;;
1402;SDS011;696;48.546;9.896;2023-07-13T00:07:48;10.75;;;2.10;;
1402;SDS011;696;48.546;9.896;2023-07-13T00:10:14;3.60;;;1.83;;
1402;SDS011;696;48.546;9.896;2023-07-13T00:12:39;4.00;;;1.92;;
1402;SDS011;696;48.546;9.896;2023-07-13T00:15:15;5.53;;;2.28;;
1402;SDS011;696;48.546;9.896;2023-07-13T00:17:47;3.22;;;1.95;;
1402;SDS011;696;48.546;9.896;2023-07-13T00:20:20;3.20;;;2.08;;
1402;SDS011;696;48.546;9.896;2023-07-13T00:22:50;3.60;;;2.10;;
1402;SDS011;696;48.546;9.896;2023-07-13T00:25:17;6.00;;;2.60;;
1402;SDS011;696;48.546;9.896;2023-07-13T00:27:43;1.83;;;1.60;;
1402;SDS011;696;48.546;9.896;2023-07-13T00:30:08;7.15;;;2.65;;
1402;SDS011;696;48.546;9.896;2023-07-13T00:32:35;2.60;;;1.95;;
1402;SDS011;696;48.546;9.896;2023-07-13T00:35:00;4.43;;;2.25;;
1402;SDS011;696;48.546;9.896;2023-07-13T00:37:28;2.88;;;1.90;;
1402;SDS011;696;48.546;9.896;2023-07-13T00:39:53;12.93;;;2.13;;
1402;SDS011;696;48.546;9.896;2023-07-13T00:42:19;3.28;;;1.90;;
1402;SDS011;696;48.546;9.896;2023-07-13T00:47:45;3.03;;;1.88;;
1402;SDS011;696;48.546;9.896;2023-07-13T00:50:12;4.20;;;1.80;;
1402;SDS011;696;48.546;9.896;2023-07-13T00:52:40;4.03;;;1.80;;
1402;SDS011;696;48.546;9.896;2023-07-13T00:55:06;2.53;;;1.80;;
1402;SDS011;696;48.546;9.896;2023-07-13T00:57:32;6.97;;;1.88;;
1402;SDS011;696;48.546;9.896;2023-07-13T00:59:58;2.90;;;2.00;;
1402;SDS011;696;48.546;9.896;2023-07-13T01:02:25;11.40;;;1.83;;
1402;SDS011;696;48.546;9.896;2023-07-13T01:04:51;3.97;;;1.40;;
1402;SDS011;696;48.546;9.896;2023-07-13T01:07:16;4.45;;;1.88;;
1402;SDS011;696;48.546;9.896;2023-07-13T01:09:43;2.15;;;1.50;;
1402;SDS011;696;48.546;9.896;2023-07-13T01:12:09;6.25;;;1.50;;
1402;SDS011;696;48.546;9.896;2023-07-13T01:14:35;1.95;;;1.58;;
1402;SDS011;696;48.546;9.896;2023-07-13T01:17:01;2.80;;;1.20;;
1402;SDS011;696;48.546;9.896;2023-07-13T01:19:42;1.27;;;1.00;;
1402;SDS011;696;48.546;9.896;2023-07-13T01:22:09;1.73;;;1.30;;
1402;SDS011;696;48.546;9.896;2023-07-13T01:24:41;2.92;;;1.60;;
1402;SDS011;696;48.546;9.896;2023-07-13T01:27:08;2.33;;;1.27;;
1402;SDS011;696;48.546;9.896;2023-07-13T01:29:35;3.38;;;1.70;;
1402;SDS011;696;48.546;9.896;2023-07-13T01:32:07;5.53;;;1.50;;
1402;SDS011;696;48.546;9.896;2023-07-13T01:34:36;1.52;;;1.17;;
1402;SDS011;696;48.546;9.896;2023-07-13T01:37:02;1.95;;;1.30;;
1402;SDS011;696;48.546;9.896;2023-07-13T01:39:28;5.22;;;1.20;;
1402;SDS011;696;48.546;9.896;2023-07-13T01:41:53;3.10;;;1.63;;
1402;SDS011;696;48.546;9.896;2023-07-13T01:44:20;2.85;;;1.15;;
1402;SDS011;696;48.546;9.896;2023-07-13T01:46:45;4.45;;;1.48;;
1402;SDS011;696;48.546;9.896;2023-07-13T01:49:11;4.22;;;1.33;;
1402;SDS011;696;48.546;9.896;2023-07-13T01:51:36;2.90;;;1.42;;
1402;SDS011;696;48.546;9.896;2023-07-13T01:54:01;2.83;;;1.65;;
1402;SDS011;696;48.546;9.896;2023-07-13T01:56:27;1.63;;;1.25;;
1402;SDS011;696;48.546;9.896;2023-07-13T01:58:52;3.45;;;1.00;;
1402;SDS011;696;48.546;9.896;2023-07-13T02:01:18;2.03;;;1.25;;
1402;SDS011;696;48.546;9.896;2023-07-13T02:03:43;2.70;;;1.40;;
1402;SDS011;696;48.546;9.896;2023-07-13T02:06:08;3.70;;;1.33;;
1402;SDS011;696;48.546;9.896;2023-07-13T02:08:34;1.52;;;1.17;;
1402;SDS011;696;48.546;9.896;2023-07-13T02:10:59;1.83;;;1.17;;
1402;SDS011;696;48.546;9.896;2023-07-13T02:13:25;7.97;;;1.23;;
1402;SDS011;696;48.546;9.896;2023-07-13T02:15:51;2.13;;;1.10;;
1402;SDS011;696;48.546;9.896;2023-07-13T02:18:16;1.52;;;1.15;;
1402;SDS011;696;48.546;9.896;2023-07-13T02:20:42;3.38;;;1.05;;
1402;SDS011;696;48.546;9.896;2023-07-13T02:23:08;2.70;;;1.23;;
1402;SDS011;696;48.546;9.896;2023-07-13T02:25:33;7.68;;;1.67;;
1402;SDS011;696;48.546;9.896;2023-07-13T02:27:58;3.72;;;1.23;;
1402;SDS011;696;48.546;9.896;2023-07-13T02:30:24;6.28;;;1.50;;
1402;SDS011;696;48.546;9.896;2023-07-13T02:32:50;1.67;;;1.33;;
1402;SDS011;696;48.546;9.896;2023-07-13T02:35:15;9.18;;;1.60;;
1402;SDS011;696;48.546;9.896;2023-07-13T02:37:40;1.63;;;1.30;;
1402;SDS011;696;48.546;9.896;2023-07-13T02:40:06;3.13;;;1.13;;
1402;SDS011;696;48.546;9.896;2023-07-13T02:42:33;2.13;;;1.33;;
1402;SDS011;696;48.546;9.896;2023-07-13T02:44:59;1.30;;;1.20;;
1402;SDS011;696;48.546;9.896;2023-07-13T02:47:25;5.50;;;1.60;;
1402;SDS011;696;48.546;9.896;2023-07-13T02:49:51;2.58;;;1.50;;
1402;SDS011;696;48.546;9.896;2023-07-13T02:52:17;3.30;;;1.50;;
1402;SDS011;696;48.546;9.896;2023-07-13T02:54:42;3.30;;;1.65;;
1402;SDS011;696;48.546;9.896;2023-07-13T02:57:07;4.45;;;1.50;;
1402;SDS011;696;48.546;9.896;2023-07-13T02:59:33;2.55;;;1.58;;
1402;SDS011;696;48.546;9.896;2023-07-13T03:01:58;1.80;;;1.02;;
1402;SDS011;696;48.546;9.896;2023-07-13T03:04:23;2.25;;;1.15;;
1402;SDS011;696;48.546;9.896;2023-07-13T03:06:49;2.60;;;1.30;;
1402;SDS011;696;48.546;9.896;2023-07-13T03:09:15;3.15;;;1.80;;
1402;SDS011;696;48.546;9.896;2023-07-13T03:11:40;3.15;;;1.45;;
1402;SDS011;696;48.546;9.896;2023-07-13T03:14:06;2.55;;;1.45;;
1402;SDS011;696;48.546;9.896;2023-07-13T03:16:33;3.45;;;1.25;;
1402;SDS011;696;48.546;9.896;2023-07-13T03:18:58;1.30;;;1.15;;
1402;SDS011;696;48.546;9.896;2023-07-13T03:21:23;2.78;;;1.75;;
1402;SDS011;696;48.546;9.896;2023-07-13T03:23:49;4.25;;;1.27;;
1402;SDS011;696;48.546;9.896;2023-07-13T03:26:16;3.38;;;1.50;;
1402;SDS011;696;48.546;9.896;2023-07-13T03:28:43;1.73;;;1.20;;
1402;SDS011;696;48.546;9.896;2023-07-13T03:31:10;7.35;;;1.42;;
1402;SDS011;696;48.546;9.896;2023-07-13T03:33:37;5.03;;;1.60;;
1402;SDS011;696;48.546;9.896;2023-07-13T03:36:03;4.07;;;1.50;;
1402;SDS011;696;48.546;9.896;2023-07-13T03:38:29;3.75;;;1.65;;
1402;SDS011;696;48.546;9.896;2023-07-13T03:40:55;3.92;;;1.23;;
1402;SDS011;696;48.546;9.896;2023-07-13T03:43:20;2.53;;;1.42;;
1402;SDS011;696;48.546;9.896;2023-07-13T03:45:46;1.90;;;1.15;;
1402;SDS011;696;48.546;9.896;2023-07-13T03:48:11;10.80;;;1.42;;
1402;SDS011;696;48.546;9.896;2023-07-13T03:50:37;7.50;;;1.40;;
1402;SDS011;696;48.546;9.896;2023-07-13T03:53:03;3.67;;;1.35;;
1402;SDS011;696;48.546;9.896;2023-07-13T03:55:28;2.90;;;1.25;;
1402;SDS011;696;48.546;9.896;2023-07-13T03:58:00;2.22;;;1.33;;
1402;SDS011;696;48.546;9.896;2023-07-13T04:00:46;2.53;;;1.50;;
1402;SDS011;696;48.546;9.896;2023-07-13T04:03:11;8.80;;;1.65;;
1402;SDS011;696;48.546;9.896;2023-07-13T04:05:37;2.50;;;1.73;;
1402;SDS011;696;48.546;9.896;2023-07-13T04:08:05;3.50;;;1.45;;
1402;SDS011;696;48.546;9.896;2023-07-13T04:10:31;3.58;;;1.25;;
1402;SDS011;696;48.546;9.896;2023-07-13T04:12:56;4.43;;;1.40;;
1402;SDS011;696;48.546;9.896;2023-07-13T04:15:22;4.00;;;1.50;;
1402;SDS011;696;48.546;9.896;2023-07-13T04:17:47;2.55;;;1.42;;
1402;SDS011;696;48.546;9.896;2023-07-13T04:20:12;4.40;;;1.67;;
1402;SDS011;696;48.546;9.896;2023-07-13T04:22:38;4.43;;;1.80;;
1402;SDS011;696;48.546;9.896;2023-07-13T04:25:03;6.88;;;1.30;;
1402;SDS011;696;48.546;9.896;2023-07-13T04:27:30;4.53;;;1.70;;
1402;SDS011;696;48.546;9.896;2023-07-13T04:29:55;3.70;;;1.40;;
1402;SDS011;696;48.546;9.896;2023-07-13T04:32:21;3.60;;;1.30;;
1402;SDS011;696;48.546;9.896;2023-07-13T04:34:46;2.00;;;1.30;;
1402;SDS011;696;48.546;9.896;2023-07-13T04:37:11;2.97;;;1.70;;
1402;SDS011;696;48.546;9.896;2023-07-13T04:39:37;1.27;;;1.17;;
1402;SDS011;696;48.546;9.896;2023-07-13T04:42:02;2.13;;;1.60;;
1402;SDS011;696;48.546;9.896;2023-07-13T04:44:28;3.22;;;1.70;;
1402;SDS011;696;48.546;9.896;2023-07-13T04:46:54;2.08;;;1.30;;
1402;SDS011;696;48.546;9.896;2023-07-13T04:49:19;2.08;;;1.83;;
1402;SDS011;696;48.546;9.896;2023-07-13T04:51:45;4.25;;;1.70;;
1402;SDS011;696;48.546;9.896;2023-07-13T04:54:10;3.13;;;1.20;;
1402;SDS011;696;48.546;9.896;2023-07-13T04:56:35;6.38;;;1.65;;
1402;SDS011;696;48.546;9.896;2023-07-13T04:59:01;1.63;;;1.48;;
1402;SDS011;696;48.546;9.896;2023-07-13T05:01:27;2.70;;;1.60;;
1402;SDS011;696;48.546;9.896;2023-07-13T05:03:52;2.42;;;1.45;;
1402;SDS011;696;48.546;9.896;2023-07-13T05:06:17;1.60;;;1.45;;
1402;SDS011;696;48.546;9.896;2023-07-13T05:08:43;5.10;;;2.28;;
1402;SDS011;696;48.546;9.896;2023-07-13T05:11:08;3.85;;;1.77;;
1402;SDS011;696;48.546;9.896;2023-07-13T05:13:33;1.67;;;1.30;;
1402;SDS011;696;48.546;9.896;2023-07-13T05:16:03;6.88;;;1.50;;
1402;SDS011;696;48.546;9.896;2023-07-13T05:18:29;1.95;;;1.65;;
1402;SDS011;696;48.546;9.896;2023-07-13T05:21:02;4.07;;;1.33;;
1402;SDS011;696;48.546;9.896;2023-07-13T05:23:29;4.60;;;1.92;;
1402;SDS011;696;48.546;9.896;2023-07-13T05:25:56;4.13;;;1.90;;
1402;SDS011;696;48.546;9.896;2023-07-13T05:28:21;4.18;;;1.88;;
1402;SDS011;696;48.546;9.896;2023-07-13T05:30:48;3.03;;;1.90;;
1402;SDS011;696;48.546;9.896;2023-07-13T05:33:13;3.55;;;1.58;;
1402;SDS011;696;48.546;9.896;2023-07-13T05:35:39;2.90;;;1.60;;
1402;SDS011;696;48.546;9.896;2023-07-13T05:38:05;1.90;;;1.60;;
1402;SDS011;696;48.546;9.896;2023-07-13T05:40:30;2.47;;;1.42;;
1402;SDS011;696;48.546;9.896;2023-07-13T05:42:56;7.70;;;1.38;;
1402;SDS011;696;48.546;9.896;2023-07-13T05:45:21;2.75;;;1.40;;
1402;SDS011;696;48.546;9.896;2023-07-13T05:47:47;2.85;;;1.33;;
1402;SDS011;696;48.546;9.896;2023-07-13T05:50:12;3.60;;;1.35;;
1402;SDS011;696;48.546;9.896;2023-07-13T05:52:37;3.47;;;1.30;;
1402;SDS011;696;48.546;9.896;2023-07-13T05:55:03;1.65;;;1.27;;
1402;SDS011;696;48.546;9.896;2023-07-13T05:57:29;3.70;;;1.60;;
1402;SDS011;696;48.546;9.896;2023-07-13T05:59:55;4.80;;;1.70;;
1402;SDS011;696;48.546;9.896;2023-07-13T06:02:20;2.47;;;1.63;;
1402;SDS011;696;48.546;9.896;2023-07-13T06:04:46;3.10;;;1.85;;
1402;SDS011;696;48.546;9.896;2023-07-13T06:07:11;5.63;;;1.70;;
1402;SDS011;696;48.546;9.896;2023-07-13T06:09:36;1.55;;;1.33;;
1402;SDS011;696;48.546;9.896;2023-07-13T06:12:02;9.85;;;1.83;;
1402;SDS011;696;48.546;9.896;2023-07-13T06:14:27;5.05;;;1.52;;
1402;SDS011;696;48.546;9.896;2023-07-13T06:16:52;5.97;;;1.60;;
1402;SDS011;696;48.546;9.896;2023-07-13T06:19:18;2.60;;;1.55;;
1402;SDS011;696;48.546;9.896;2023-07-13T06:21:43;3.97;;;1.92;;
1402;SDS011;696;48.546;9.896;2023-07-13T06:24:08;4.03;;;1.60;;
1402;SDS011;696;48.546;9.896;2023-07-13T06:26:34;10.85;;;1.80;;
1402;SDS011;696;48.546;9.896;2023-07-13T06:28:59;4.75;;;1.75;;
1402;SDS011;696;48.546;9.896;2023-07-13T06:31:24;2.30;;;1.50;;
1402;SDS011;696;48.546;9.896;2023-07-13T06:33:50;2.75;;;1.73;;
1402;SDS011;696;48.546;9.896;2023-07-13T06:36:15;2.38;;;1.25;;
1402;SDS011;696;48.546;9.896;2023-07-13T06:38:40;1.98;;;1.30;;
1402;SDS011;696;48.546;9.896;2023-07-13T06:41:06;3.97;;;1.90;;
1402;SDS011;696;48.546;9.896;2023-07-13T06:43:32;3.65;;;1.30;;
1402;SDS011;696;48.546;9.896;2023-07-13T06:45:58;5.43;;;1.40;;
1402;SDS011;696;48.546;9.896;2023-07-13T06:48:24;3.10;;;1.38;;
1402;SDS011;696;48.546;9.896;2023-07-13T06:50:49;3.47;;;1.50;;
1402;SDS011;696;48.546;9.896;2023-07-13T06:53:16;3.20;;;1.05;;
1402;SDS011;696;48.546;9.896;2023-07-13T06:55:43;4.18;;;1.42;;
1402;SDS011;696;48.546;9.896;2023-07-13T06:58:09;1.13;;;0.90;;
1402;SDS011;696;48.546;9.896;2023-07-13T07:00:34;3.20;;;1.08;;
1402;SDS011;696;48.546;9.896;2023-07-13T07:02:59;7.13;;;1.17;;
1402;SDS011;696;48.546;9.896;2023-07-13T07:05:25;1.50;;;0.95;;
1402;SDS011;696;48.546;9.896;2023-07-13T07:07:51;1.40;;;0.90;;
1402;SDS011;696;48.546;9.896;2023-07-13T07:10:17;2.00;;;1.00;;
1402;SDS011;696;48.546;9.896;2023-07-13T07:12:43;2.35;;;1.00;;
1402;SDS011;696;48.546;9.896;2023-07-13T07:15:08;3.17;;;1.13;;
1402;SDS011;696;48.546;9.896;2023-07-13T07:17:34;2.75;;;1.20;;
1402;SDS011;696;48.546;9.896;2023-07-13T07:19:59;2.28;;;1.15;;
1402;SDS011;696;48.546;9.896;2023-07-13T07:22:25;3.67;;;1.52;;
1402;SDS011;696;48.546;9.896;2023-07-13T07:24:53;1.92;;;1.10;;
1402;SDS011;696;48.546;9.896;2023-07-13T07:27:18;1.77;;;0.85;;
1402;SDS011;696;48.546;9.896;2023-07-13T07:29:45;3.60;;;1.10;;
1402;SDS011;696;48.546;9.896;2023-07-13T07:32:10;1.25;;;0.77;;
1402;SDS011;696;48.546;9.896;2023-07-13T07:34:36;3.67;;;1.50;;
1402;SDS011;696;48.546;9.896;2023-07-13T07:37:01;1.45;;;1.00;;
1402;SDS011;696;48.546;9.896;2023-07-13T07:39:27;2.67;;;0.70;;
1402;SDS011;696;48.546;9.896;2023-07-13T07:41:53;1.27;;;0.98;;
1402;SDS011;696;48.546;9.896;2023-07-13T07:44:18;1.88;;;1.00;;
1402;SDS011;696;48.546;9.896;2023-07-13T07:46:43;4.32;;;1.35;;
1402;SDS011;696;48.546;9.896;2023-07-13T07:49:09;1.88;;;0.93;;
1402;SDS011;696;48.546;9.896;2023-07-13T07:51:35;2.15;;;0.95;;
1402;SDS011;696;48.546;9.896;2023-07-13T07:54:01;1.80;;;1.00;;
1402;SDS011;696;48.546;9.896;2023-07-13T07:56:26;3.10;;;1.38;;
1402;SDS011;696;48.546;9.896;2023-07-13T07:58:51;2.13;;;1.05;;
1402;SDS011;696;48.546;9.896;2023-07-13T08:01:17;2.72;;;0.75;;
1402;SDS011;696;48.546;9.896;2023-07-13T08:03:42;1.50;;;0.88;;
1402;SDS011;696;48.546;9.896;2023-07-13T08:06:07;5.43;;;1.83;;
1402;SDS011;696;48.546;9.896;2023-07-13T08:08:34;2.58;;;1.23;;
1402;SDS011;696;48.546;9.896;2023-07-13T08:11:01;1.80;;;0.90;;
1402;SDS011;696;48.546;9.896;2023-07-13T08:13:31;1.85;;;0.98;;
1402;SDS011;696;48.546;9.896;2023-07-13T08:15:56;3.78;;;1.08;;
1402;SDS011;696;48.546;9.896;2023-07-13T08:18:21;1.63;;;1.00;;
1402;SDS011;696;48.546;9.896;2023-07-13T08:20:47;2.08;;;0.93;;
1402;SDS011;696;48.546;9.896;2023-07-13T08:23:12;2.42;;;1.10;;
1402;SDS011;696;48.546;9.896;2023-07-13T08:25:38;3.70;;;1.02;;
1402;SDS011;696;48.546;9.896;2023-07-13T08:28:03;2.83;;;1.13;;
1402;SDS011;696;48.546;9.896;2023-07-13T08:30:29;1.50;;;1.02;;
1402;SDS011;696;48.546;9.896;2023-07-13T08:32:54;1.77;;;1.00;;
1402;SDS011;696;48.546;9.896;2023-07-13T08:35:19;1.23;;;0.90;;
1402;SDS011;696;48.546;9.896;2023-07-13T08:37:45;2.58;;;0.65;;
1402;SDS011;696;48.546;9.896;2023-07-13T08:40:10;1.70;;;1.00;;
1402;SDS011;696;48.546;9.896;2023-07-13T08:42:38;2.88;;;1.10;;
1402;SDS011;696;48.546;9.896;2023-07-13T08:45:23;2.58;;;1.25;;
1402;SDS011;696;48.546;9.896;2023-07-13T08:47:57;4.82;;;1.00;;
1402;SDS011;696;48.546;9.896;2023-07-13T08:50:28;0.50;;;0.50;;
1402;SDS011;696;48.546;9.896;2023-07-13T08:52:56;1.35;;;0.93;;
1402;SDS011;696;48.546;9.896;2023-07-13T08:55:33;2.67;;;0.98;;
1402;SDS011;696;48.546;9.896;2023-07-13T08:58:12;1.45;;;0.93;;
1402;SDS011;696;48.546;9.896;2023-07-13T09:03:23;1.63;;;0.93;;
1402;SDS011;696;48.546;9.896;2023-07-13T09:06:06;4.00;;;1.17;;
1402;SDS011;696;48.546;9.896;2023-07-13T09:11:29;1.80;;;1.05;;
1402;SDS011;696;48.546;9.896;2023-07-13T09:16:59;3.63;;;1.00;;
1402;SDS011;696;48.546;9.896;2023-07-13T09:19:27;2.63;;;1.00;;
1402;SDS011;696;48.546;9.896;2023-07-13T09:21:54;2.85;;;1.35;;
1402;SDS011;696;48.546;9.896;2023-07-13T09:26:46;1.23;;;0.90;;
1402;SDS011;696;48.546;9.896;2023-07-13T09:29:29;1.48;;;0.80;;
1402;SDS011;696;48.546;9.896;2023-07-13T09:31:58;1.25;;;0.65;;
1402;SDS011;696;48.546;9.896;2023-07-13T09:34:27;2.10;;;0.93;;
1402;SDS011;696;48.546;9.896;2023-07-13T09:36:55;1.52;;;0.98;;
1402;SDS011;696;48.546;9.896;2023-07-13T09:39:30;4.72;;;1.35;;
1402;SDS011;696;48.546;9.896;2023-07-13T09:44:55;3.45;;;1.50;;
1402;SDS011;696;48.546;9.896;2023-07-13T09:47:29;2.92;;;1.30;;
1402;SDS011;696;48.546;9.896;2023-07-13T09:49:56;3.75;;;1.35;;
1402;SDS011;696;48.546;9.896;2023-07-13T09:52:23;1.73;;;0.80;;
1402;SDS011;696;48.546;9.896;2023-07-13T09:54:49;2.65;;;1.13;;
1402;SDS011;696;48.546;9.896;2023-07-13T09:57:17;2.38;;;0.90;;
1402;SDS011;696;48.546;9.896;2023-07-13T09:59:45;2.40;;;1.20;;
1402;SDS011;696;48.546;9.896;2023-07-13T10:04:58;3.58;;;1.42;;
1402;SDS011;696;48.546;9.896;2023-07-13T10:07:32;2.42;;;1.30;;
1402;SDS011;696;48.546;9.896;2023-07-13T10:10:12;3.13;;;1.25;;
1402;SDS011;696;48.546;9.896;2023-07-13T10:12:43;2.40;;;1.30;;
1402;SDS011;696;48.546;9.896;2023-07-13T10:15:13;2.30;;;1.25;;
1402;SDS011;696;48.546;9.896;2023-07-13T10:17:41;4.35;;;1.25;;
1402;SDS011;696;48.546;9.896;2023-07-13T10:20:06;1.55;;;1.10;;
1402;SDS011;696;48.546;9.896;2023-07-13T10:22:39;3.50;;;1.30;;
1402;SDS011;696;48.546;9.896;2023-07-13T10:25:13;3.88;;;1.52;;
1402;SDS011;696;48.546;9.896;2023-07-13T10:27:42;3.50;;;1.08;;
1402;SDS011;696;48.546;9.896;2023-07-13T10:32:45;2.60;;;1.08;;
1402;SDS011;696;48.546;9.896;2023-07-13T10:35:12;1.73;;;1.00;;
1402;SDS011;696;48.546;9.896;2023-07-13T10:37:46;1.05;;;0.73;;
1402;SDS011;696;48.546;9.896;2023-07-13T10:40:16;1.92;;;0.77;;
1402;SDS011;696;48.546;9.896;2023-07-13T10:42:45;1.33;;;1.02;;
1402;SDS011;696;48.546;9.896;2023-07-13T10:45:16;1.90;;;1.10;;
1402;SDS011;696;48.546;9.896;2023-07-13T10:50:14;2.25;;;1.02;;
1402;SDS011;696;48.546;9.896;2023-07-13T10:52:45;6.25;;;1.30;;
1402;SDS011;696;48.546;9.896;2023-07-13T10:57:59;5.97;;;1.13;;
1402;SDS011;696;48.546;9.896;2023-07-13T11:00:25;1.23;;;1.08;;
1402;SDS011;696;48.546;9.896;2023-07-13T11:03:10;1.67;;;0.82;;
1402;SDS011;696;48.546;9.896;2023-07-13T11:05:38;3.33;;;1.08;;
1402;SDS011;696;48.546;9.896;2023-07-13T11:08:31;2.28;;;1.20;;
1402;SDS011;696;48.546;9.896;2023-07-13T11:10:58;3.30;;;1.10;;
1402;SDS011;696;48.546;9.896;2023-07-13T11:16:01;2.05;;;0.90;;
1402;SDS011;696;48.546;9.896;2023-07-13T11:18:38;3.05;;;1.13;;
1402;SDS011;696;48.546;9.896;2023-07-13T11:23:42;1.33;;;1.00;;
1402;SDS011;696;48.546;9.896;2023-07-13T11:31:57;2.40;;;0.85;;
1402;SDS011;696;48.546;9.896;2023-07-13T11:34:28;2.75;;;1.15;;
1402;SDS011;696;48.546;9.896;2023-07-13T11:36:57;2.00;;;1.15;;
1402;SDS011;696;48.546;9.896;2023-07-13T11:39:33;2.30;;;1.02;;
1402;SDS011;696;48.546;9.896;2023-07-13T11:42:01;1.92;;;0.90;;
1402;SDS011;696;48.546;9.896;2023-07-13T11:44:29;1.70;;;1.02;;
1402;SDS011;696;48.546;9.896;2023-07-13T11:47:00;1.38;;;0.77;;
1402;SDS011;696;48.546;9.896;2023-07-13T11:49:42;1.90;;;0.80;;
1402;SDS011;696;48.546;9.896;2023-07-13T11:52:14;0.85;;;0.60;;
1402;SDS011;696;48.546;9.896;2023-07-13T11:54:51;2.83;;;0.63;;
1402;SDS011;696;48.546;9.896;2023-07-13T11:57:30;2.15;;;1.08;;
1402;SDS011;696;48.546;9.896;2023-07-13T11:59:59;3.97;;;0.73;;
1402;SDS011;696;48.546;9.896;2023-07-13T12:04:54;1.55;;;0.77;;
1402;SDS011;696;48.546;9.896;2023-07-13T12:07:19;5.75;;;1.30;;
1402;SDS011;696;48.546;9.896;2023-07-13T12:09:45;2.25;;;0.90;;
1402;SDS011;696;48.546;9.896;2023-07-13T12:12:11;2.03;;;0.70;;
1402;SDS011;696;48.546;9.896;2023-07-13T12:14:37;1.67;;;0.90;;
1402;SDS011;696;48.546;9.896;2023-07-13T12:17:05;1.10;;;0.88;;
1402;SDS011;696;48.546;9.896;2023-07-13T12:19:34;3.28;;;0.82;;
1402;SDS011;696;48.546;9.896;2023-07-13T12:22:00;2.78;;;1.00;;
1402;SDS011;696;48.546;9.896;2023-07-13T12:24:25;0.73;;;0.65;;
1402;SDS011;696;48.546;9.896;2023-07-13T12:26:59;3.08;;;1.10;;
1402;SDS011;696;48.546;9.896;2023-07-13T12:29:28;0.98;;;0.80;;
1402;SDS011;696;48.546;9.896;2023-07-13T12:31:58;1.17;;;0.75;;
1402;SDS011;696;48.546;9.896;2023-07-13T12:34:24;2.40;;;0.90;;
1402;SDS011;696;48.546;9.896;2023-07-13T12:36:55;2.03;;;0.60;;
1402;SDS011;696;48.546;9.896;2023-07-13T12:44:53;1.10;;;0.60;;
1402;SDS011;696;48.546;9.896;2023-07-13T12:47:20;2.60;;;0.60;;
1402;SDS011;696;48.546;9.896;2023-07-13T12:49:50;1.30;;;0.50;;
1402;SDS011;696;48.546;9.896;2023-07-13T12:52:21;1.50;;;0.70;;
1402;SDS011;696;48.546;9.896;2023-07-13T12:55:19;1.38;;;0.52;;
1402;SDS011;696;48.546;9.896;2023-07-13T12:57:46;0.75;;;0.60;;
1402;SDS011;696;48.546;9.896;2023-07-13T13:00:30;3.20;;;0.80;;
1402;SDS011;696;48.546;9.896;2023-07-13T13:03:07;1.52;;;0.40;;
1402;SDS011;696;48.546;9.896;2023-07-13T13:05:36;3.15;;;0.77;;
1402;SDS011;696;48.546;9.896;2023-07-13T13:08:02;2.42;;;0.70;;
1402;SDS011;696;48.546;9.896;2023-07-13T13:10:28;3.17;;;1.17;;
1402;SDS011;696;48.546;9.896;2023-07-13T13:12:54;1.13;;;0.80;;
1402;SDS011;696;48.546;9.896;2023-07-13T13:15:19;2.22;;;0.90;;
1402;SDS011;696;48.546;9.896;2023-07-13T13:17:47;1.67;;;0.70;;
1402;SDS011;696;48.546;9.896;2023-07-13T13:20:16;1.40;;;0.70;;
1402;SDS011;696;48.546;9.896;2023-07-13T13:22:43;1.45;;;0.70;;
1402;SDS011;696;48.546;9.896;2023-07-13T13:25:12;0.82;;;0.55;;
1402;SDS011;696;48.546;9.896;2023-07-13T13:27:38;2.03;;;0.68;;
1402;SDS011;696;48.546;9.896;2023-07-13T13:30:09;2.03;;;0.90;;
1402;SDS011;696;48.546;9.896;2023-07-13T13:32:35;2.85;;;0.90;;
1402;SDS011;696;48.546;9.896;2023-07-13T13:35:01;3.80;;;1.00;;
1402;SDS011;696;48.546;9.896;2023-07-13T13:37:26;1.25;;;0.82;;
1402;SDS011;696;48.546;9.896;2023-07-13T13:39:51;1.65;;;0.85;;
1402;SDS011;696;48.546;9.896;2023-07-13T13:42:18;2.60;;;1.20;;
1402;SDS011;696;48.546;9.896;2023-07-13T13:44:46;2.40;;;0.80;;
1402;SDS011;696;48.546;9.896;2023-07-13T13:47:23;1.38;;;1.00;;
1402;SDS011;696;48.546;9.896;2023-07-13T13:49:53;3.53;;;1.00;;
1402;SDS011;696;48.546;9.896;2023-07-13T13:52:18;1.17;;;0.80;;
1402;SDS011;696;48.546;9.896;2023-07-13T13:54:44;2.85;;;1.30;;
1402;SDS011;696;48.546;9.896;2023-07-13T13:57:09;3.20;;;0.70;;
1402;SDS011;696;48.546;9.896;2023-07-13T13:59:37;1.42;;;0.90;;
1402;SDS011;696;48.546;9.896;2023-07-13T14:02:08;3.75;;;1.20;;
1402;SDS011;696;48.546;9.896;2023-07-13T14:04:45;2.65;;;0.95;;
1402;SDS011;696;48.546;9.896;2023-07-13T14:07:10;1.33;;;0.82;;
1402;SDS011;696;48.546;9.896;2023-07-13T14:09:36;1.77;;;1.00;;
1402;SDS011;696;48.546;9.896;2023-07-13T14:12:01;2.60;;;1.17;;
1402;SDS011;696;48.546;9.896;2023-07-13T14:14:27;1.60;;;0.90;;
1402;SDS011;696;48.546;9.896;2023-07-13T14:16:53;3.72;;;1.38;;
1402;SDS011;696;48.546;9.896;2023-07-13T14:19:21;2.20;;;1.20;;
1402;SDS011;696;48.546;9.896;2023-07-13T14:21:47;2.30;;;1.00;;
1402;SDS011;696;48.546;9.896;2023-07-13T14:24:14;3.05;;;1.15;;
1402;SDS011;696;48.546;9.896;2023-07-13T14:26:41;1.52;;;0.90;;
1402;SDS011;696;48.546;9.896;2023-07-13T14:29:12;2.63;;;0.85;;
1402;SDS011;696;48.546;9.896;2023-07-13T14:31:39;1.17;;;0.90;;
1402;SDS011;696;48.546;9.896;2023-07-13T14:34:05;7.07;;;1.15;;
1402;SDS011;696;48.546;9.896;2023-07-13T14:36:34;5.88;;;1.00;;
1402;SDS011;696;48.546;9.896;2023-07-13T14:39:14;2.03;;;1.05;;
1402;SDS011;696;48.546;9.896;2023-07-13T14:41:41;1.73;;;0.82;;
1402;SDS011;696;48.546;9.896;2023-07-13T14:44:14;1.52;;;0.95;;
1402;SDS011;696;48.546;9.896;2023-07-13T14:46:40;1.13;;;0.85;;
1402;SDS011;696;48.546;9.896;2023-07-13T14:49:12;1.50;;;0.90;;
1402;SDS011;696;48.546;9.896;2023-07-13T14:51:40;2.97;;;1.23;;
1402;SDS011;696;48.546;9.896;2023-07-13T14:54:08;2.35;;;0.90;;
1402;SDS011;696;48.546;9.896;2023-07-13T14:56:33;1.33;;;0.85;;
1402;SDS011;696;48.546;9.896;2023-07-13T14:58:59;2.35;;;0.82;;
1402;SDS011;696;48.546;9.896;2023-07-13T15:01:24;2.13;;;1.20;;
1402;SDS011;696;48.546;9.896;2023-07-13T15:03:50;2.63;;;0.95;;
1402;SDS011;696;48.546;9.896;2023-07-13T15:06:16;1.88;;;1.02;;
1402;SDS011;696;48.546;9.896;2023-07-13T15:08:44;2.65;;;1.27;;
1402;SDS011;696;48.546;9.896;2023-07-13T15:11:10;1.75;;;1.00;;
1402;SDS011;696;48.546;9.896;2023-07-13T15:13:39;1.15;;;0.75;;
1402;SDS011;696;48.546;9.896;2023-07-13T15:16:10;3.67;;;1.33;;
1402;SDS011;696;48.546;9.896;2023-07-13T15:18:40;1.75;;;0.90;;
1402;SDS011;696;48.546;9.896;2023-07-13T15:21:08;1.63;;;1.10;;
1402;SDS011;696;48.546;9.896;2023-07-13T15:23:35;3.65;;;0.93;;
1402;SDS011;696;48.546;9.896;2023-07-13T15:26:00;1.33;;;1.00;;
1402;SDS011;696;48.546;9.896;2023-07-13T15:28:26;4.63;;;1.40;;
1402;SDS011;696;48.546;9.896;2023-07-13T15:30:51;4.43;;;1.15;;
1402;SDS011;696;48.546;9.896;2023-07-13T15:35:52;2.88;;;0.90;;
1402;SDS011;696;48.546;9.896;2023-07-13T15:38:27;2.10;;;0.90;;
1402;SDS011;696;48.546;9.896;2023-07-13T15:40:54;2.45;;;1.25;;
1402;SDS011;696;48.546;9.896;2023-07-13T15:43:21;2.92;;;1.20;;
1402;SDS011;696;48.546;9.896;2023-07-13T15:45:46;3.35;;;1.17;;
1402;SDS011;696;48.546;9.896;2023-07-13T15:48:16;1.00;;;0.70;;
1402;SDS011;696;48.546;9.896;2023-07-13T15:50:55;1.88;;;1.08;;
1402;SDS011;696;48.546;9.896;2023-07-13T15:53:28;2.50;;;1.30;;
1402;SDS011;696;48.546;9.896;2023-07-13T15:55:54;3.33;;;1.13;;
1402;SDS011;696;48.546;9.896;2023-07-13T15:58:20;3.42;;;1.02;;
1402;SDS011;696;48.546;9.896;2023-07-13T16:00:46;2.95;;;1.10;;
1402;SDS011;696;48.546;9.896;2023-07-13T16:03:15;1.88;;;1.10;;
1402;SDS011;696;48.546;9.896;2023-07-13T16:05:40;1.25;;;0.98;;
1402;SDS011;696;48.546;9.896;2023-07-13T16:08:06;1.90;;;1.10;;
1402;SDS011;696;48.546;9.896;2023-07-13T16:10:41;2.30;;;1.25;;
1402;SDS011;696;48.546;9.896;2023-07-13T16:13:14;2.80;;;1.30;;
1402;SDS011;696;48.546;9.896;2023-07-13T16:15:40;1.52;;;0.98;;
1402;SDS011;696;48.546;9.896;2023-07-13T16:18:09;3.08;;;1.48;;
1402;SDS011;696;48.546;9.896;2023-07-13T16:20:36;4.00;;;1.40;;